createdAt,value
2017-12-05T00:00:17.554Z,95.20
2017-12-05T00:02:45.673Z,95.20
2017-12-05T00:05:13.820Z,95.30
2017-12-05T00:07:42.153Z,95.30
2017-12-05T00:10:11.146Z,95.40
2017-12-05T00:12:40.053Z,95.50
2017-12-05T00:15:08.176Z,95.40
2017-12-05T00:17:36.327Z,95.50
2017-12-05T00:20:04.661Z,95.50
2017-12-05T00:22:33.564Z,95.60
2017-12-05T00:25:01.689Z,95.50
2017-12-05T00:27:29.834Z,95.60
2017-12-05T00:29:57.957Z,95.80
2017-12-05T00:32:26.099Z,95.80
2017-12-05T00:34:54.221Z,95.90
2017-12-05T00:37:22.386Z,95.90
2017-12-05T00:39:51.276Z,96.10
2017-12-05T00:42:19.426Z,96.10
2017-12-05T00:44:47.542Z,96.10
2017-12-05T00:47:15.695Z,96.20
2017-12-05T00:49:43.817Z,96.30
2017-12-05T00:52:11.961Z,96.40
2017-12-05T00:54:40.090Z,96.40
2017-12-05T00:57:08.232Z,96.50
2017-12-05T00:59:36.364Z,96.50
2017-12-05T01:02:04.509Z,96.60
2017-12-05T01:04:32.633Z,96.70
2017-12-05T01:07:00.790Z,96.70
2017-12-05T01:09:28.916Z,96.80
2017-12-05T01:11:57.056Z,96.80
2017-12-05T01:14:25.174Z,96.90
2017-12-05T01:16:53.325Z,97.00
2017-12-05T01:19:21.454Z,97.00
2017-12-05T01:21:50.365Z,97.30
2017-12-05T01:24:18.492Z,97.30
2017-12-05T01:26:46.667Z,97.30
2017-12-05T01:29:14.781Z,97.40
2017-12-05T01:31:42.909Z,97.40
2017-12-05T01:34:11.057Z,97.50
2017-12-05T01:36:39.191Z,97.60
2017-12-05T01:39:07.341Z,97.60
2017-12-05T01:41:35.456Z,97.60
2017-12-05T01:44:03.616Z,97.70
2017-12-05T01:46:31.742Z,97.70
2017-12-05T01:48:59.888Z,97.70
2017-12-05T01:51:28.015Z,97.80
2017-12-05T01:53:56.933Z,97.80
2017-12-05T01:56:25.053Z,97.80
2017-12-05T01:58:53.201Z,97.80
2017-12-05T02:01:21.327Z,97.80
2017-12-05T02:03:49.477Z,97.90
2017-12-05T02:06:17.601Z,98.00
2017-12-05T02:08:45.747Z,98.00
2017-12-05T02:11:13.860Z,98.00
2017-12-05T02:13:42.013Z,98.00
2017-12-05T02:16:10.132Z,98.40
2017-12-05T02:18:38.273Z,98.00
2017-12-05T02:21:06.397Z,98.00
2017-12-05T02:23:34.546Z,98.00
2017-12-05T02:26:02.941Z,98.10
2017-12-05T02:28:31.094Z,98.10
2017-12-05T02:30:59.211Z,98.10
2017-12-05T02:33:28.126Z,98.30
2017-12-05T02:35:56.252Z,98.30
2017-12-05T02:38:24.397Z,98.30
2017-12-05T02:41:12.201Z,98.30
2017-12-05T02:43:40.359Z,98.50
2017-12-05T02:46:08.483Z,98.50
2017-12-05T02:48:36.644Z,98.50
2017-12-05T02:51:04.775Z,98.60
2017-12-05T02:53:32.895Z,98.60
2017-12-05T02:56:01.042Z,98.60
2017-12-05T02:58:29.159Z,98.70
2017-12-05T03:00:57.312Z,98.70
2017-12-05T03:03:25.424Z,98.70
2017-12-05T03:05:53.582Z,98.70
2017-12-05T03:08:21.704Z,98.70
2017-12-05T03:10:49.851Z,98.70
2017-12-05T03:13:18.735Z,98.90
2017-12-05T03:15:46.881Z,98.90
2017-12-05T03:18:15.000Z,98.90
2017-12-05T03:20:43.144Z,98.90
2017-12-05T03:23:11.263Z,99.00
2017-12-05T03:25:39.415Z,99.00
2017-12-05T03:28:07.556Z,99.10
2017-12-05T03:30:35.703Z,99.20
2017-12-05T03:33:03.820Z,99.20
2017-12-05T03:35:31.979Z,99.20
2017-12-05T03:38:00.098Z,99.30
2017-12-05T03:40:28.245Z,99.60
2017-12-05T03:42:57.133Z,99.70
2017-12-05T03:45:25.286Z,99.70
2017-12-05T03:47:53.411Z,99.70
2017-12-05T03:50:21.564Z,99.80
2017-12-05T03:52:49.690Z,99.90
2017-12-05T03:55:17.846Z,99.90
2017-12-05T03:57:45.964Z,99.90
2017-12-05T04:00:14.120Z,99.90
2017-12-05T04:02:42.248Z,99.90
2017-12-05T04:05:10.403Z,99.90
2017-12-05T04:07:38.525Z,99.90
2017-12-05T04:10:06.677Z,99.90
2017-12-05T04:12:34.808Z,99.90
2017-12-05T04:15:02.966Z,99.90
2017-12-05T04:17:31.094Z,99.90
2017-12-05T04:19:59.224Z,99.90
2017-12-05T04:22:27.382Z,99.90
2017-12-05T04:24:55.515Z,99.90
2017-12-05T04:27:23.669Z,99.90
2017-12-05T04:29:51.804Z,99.90
2017-12-05T04:32:19.962Z,99.90
2017-12-05T04:34:48.089Z,99.90
2017-12-05T04:37:16.242Z,99.90
2017-12-05T04:39:44.382Z,99.90
2017-12-05T04:42:12.541Z,99.90
2017-12-05T04:44:40.854Z,99.90
2017-12-05T04:47:09.009Z,99.90
2017-12-05T04:49:37.125Z,99.90
2017-12-05T04:52:05.277Z,99.90
2017-12-05T04:54:33.402Z,99.90
2017-12-05T04:57:01.553Z,99.90
2017-12-05T04:59:29.677Z,99.90
2017-12-05T05:01:57.831Z,99.90
2017-12-05T05:04:25.958Z,99.90
2017-12-05T05:06:54.111Z,99.90
2017-12-05T05:09:22.225Z,99.90
2017-12-05T05:11:50.373Z,99.90
2017-12-05T05:14:18.495Z,99.90
2017-12-05T05:16:46.647Z,99.90
2017-12-05T05:19:14.765Z,99.90
2017-12-05T05:21:42.905Z,99.90
2017-12-05T05:24:11.027Z,99.90
2017-12-05T05:26:39.177Z,99.90
2017-12-05T05:29:07.294Z,99.90
2017-12-05T05:31:36.214Z,99.90
2017-12-05T05:34:04.361Z,99.90
2017-12-05T05:36:32.479Z,99.90
2017-12-05T05:39:00.625Z,99.90
2017-12-05T05:41:28.744Z,99.90
2017-12-05T05:43:56.893Z,99.90
2017-12-05T05:46:25.020Z,99.90
2017-12-05T05:48:53.162Z,99.90
2017-12-05T05:51:21.305Z,99.90
2017-12-05T05:53:49.438Z,99.90
2017-12-05T05:56:17.576Z,99.90
2017-12-05T05:58:45.705Z,99.90
2017-12-05T06:01:13.845Z,99.90
2017-12-05T06:03:41.965Z,99.90
2017-12-05T06:06:10.100Z,99.90
2017-12-05T06:08:38.221Z,99.90
2017-12-05T06:11:06.382Z,99.90
2017-12-05T06:13:34.493Z,99.90
2017-12-05T06:16:03.075Z,99.90
2017-12-05T06:18:31.208Z,99.90
2017-12-05T06:20:59.372Z,99.90
2017-12-05T06:23:27.493Z,99.90
2017-12-05T06:25:55.650Z,99.90
2017-12-05T06:28:23.777Z,99.90
2017-12-05T06:30:51.924Z,99.90
2017-12-05T06:33:20.048Z,99.90
2017-12-05T06:35:48.185Z,99.90
2017-12-05T06:38:16.300Z,99.90
2017-12-05T06:40:44.450Z,99.90
2017-12-05T06:43:12.570Z,99.90
2017-12-05T06:45:40.720Z,99.90
2017-12-05T06:48:08.867Z,99.90
2017-12-05T06:50:37.012Z,99.90
2017-12-05T06:53:05.170Z,99.90
2017-12-05T06:55:33.300Z,99.90
2017-12-05T06:58:01.421Z,99.90
2017-12-05T07:00:29.623Z,99.90
2017-12-05T07:02:57.736Z,99.90
2017-12-05T07:05:25.885Z,99.90
2017-12-05T07:07:54.005Z,99.90
2017-12-05T07:10:22.157Z,99.90
2017-12-05T07:12:50.282Z,99.90
2017-12-05T07:15:18.421Z,99.90
2017-12-05T07:17:46.539Z,99.90
2017-12-05T07:20:15.870Z,99.90
2017-12-05T07:22:43.984Z,99.90
2017-12-05T07:25:12.157Z,99.90
2017-12-05T07:27:40.276Z,99.90
2017-12-05T07:30:08.426Z,99.90
2017-12-05T07:32:37.309Z,99.90
2017-12-05T07:35:05.454Z,99.90
2017-12-05T07:37:33.578Z,99.90
2017-12-05T07:40:01.721Z,99.90
2017-12-05T07:42:29.862Z,99.90
2017-12-05T07:44:58.012Z,99.90
2017-12-05T07:47:26.134Z,99.90
2017-12-05T07:49:54.273Z,99.90
2017-12-05T07:52:22.398Z,99.90
2017-12-05T07:54:50.546Z,99.90
2017-12-05T07:57:18.668Z,99.90
2017-12-05T07:59:46.813Z,99.90
2017-12-05T08:02:15.722Z,99.90
2017-12-05T08:04:43.878Z,99.90
2017-12-05T08:07:12.001Z,99.90
2017-12-05T08:09:40.125Z,99.90
2017-12-05T08:12:08.270Z,99.90
2017-12-05T08:14:36.397Z,99.90
2017-12-05T08:17:04.576Z,99.90
2017-12-05T08:19:32.707Z,99.90
2017-12-05T08:22:00.911Z,99.90
2017-12-05T08:24:29.026Z,99.90
2017-12-05T08:26:57.173Z,99.90
2017-12-05T08:29:25.288Z,99.90
2017-12-05T08:31:53.436Z,99.90
2017-12-05T08:34:21.553Z,99.90
2017-12-05T08:36:49.746Z,99.90
2017-12-05T08:39:18.635Z,99.90
2017-12-05T08:41:46.782Z,99.90
2017-12-05T08:44:15.387Z,99.90
2017-12-05T08:46:43.820Z,99.90
2017-12-05T08:49:12.297Z,99.90
2017-12-05T08:51:40.465Z,99.90
2017-12-05T08:54:08.576Z,99.90
2017-12-05T08:56:36.728Z,99.90
2017-12-05T08:59:04.851Z,99.80
2017-12-05T09:01:33.777Z,99.50
2017-12-05T09:04:01.898Z,99.40
2017-12-05T09:06:30.785Z,99.10
2017-12-05T09:08:58.934Z,99.10
2017-12-05T09:11:27.078Z,99.00
2017-12-05T09:13:55.225Z,98.80
2017-12-05T09:16:23.342Z,98.70
2017-12-05T09:18:51.493Z,98.70
2017-12-05T09:21:19.610Z,98.60
2017-12-05T09:23:47.761Z,98.60
2017-12-05T09:26:15.882Z,98.60
2017-12-05T09:28:44.033Z,98.50
2017-12-05T09:31:12.153Z,98.50
2017-12-05T09:33:40.292Z,98.80
2017-12-05T09:36:09.178Z,98.40
2017-12-05T09:38:37.321Z,98.30
2017-12-05T09:41:05.445Z,98.30
2017-12-05T09:43:34.353Z,98.00
2017-12-05T09:46:02.478Z,98.00
2017-12-05T09:48:30.626Z,98.00
2017-12-05T09:50:58.736Z,98.00
2017-12-05T09:53:26.880Z,97.90
2017-12-05T09:55:55.001Z,97.90
2017-12-05T09:58:23.150Z,97.90
2017-12-05T10:00:51.273Z,97.80
2017-12-05T10:03:19.417Z,97.60
2017-12-05T10:05:47.568Z,97.70
2017-12-05T10:08:15.727Z,97.70
2017-12-05T10:10:43.847Z,97.70
2017-12-05T10:13:12.014Z,97.60
2017-12-05T10:15:40.136Z,97.70
2017-12-05T10:18:08.255Z,97.60
2017-12-05T10:20:36.393Z,97.50
2017-12-05T10:23:04.525Z,97.50
2017-12-05T10:25:32.675Z,97.50
2017-12-05T10:28:00.789Z,97.50
2017-12-05T10:30:28.954Z,97.60
2017-12-05T10:32:57.085Z,97.70
2017-12-05T10:35:26.002Z,97.90
2017-12-05T10:37:54.439Z,97.80
2017-12-05T10:40:22.584Z,97.90
2017-12-05T10:42:50.707Z,98.00
2017-12-05T10:45:18.845Z,98.10
2017-12-05T10:47:46.969Z,98.20
2017-12-05T10:50:15.109Z,98.30
2017-12-05T10:52:43.228Z,98.30
2017-12-05T10:55:11.412Z,98.30
2017-12-05T10:57:39.534Z,98.30
2017-12-05T11:00:07.655Z,98.30
2017-12-05T11:02:35.800Z,98.30
2017-12-05T11:05:03.921Z,98.30
2017-12-05T11:07:32.073Z,98.30
2017-12-05T11:10:00.188Z,98.30
2017-12-05T11:12:28.340Z,98.30
2017-12-05T11:14:56.466Z,98.20
2017-12-05T11:17:25.373Z,98.10
2017-12-05T11:19:53.489Z,98.10
2017-12-05T11:22:21.637Z,98.20
2017-12-05T11:24:49.762Z,98.20
2017-12-05T11:27:17.908Z,98.20
2017-12-05T11:29:46.025Z,98.20
2017-12-05T11:32:14.175Z,98.10
2017-12-05T11:34:42.293Z,98.00
2017-12-05T11:37:10.462Z,97.80
2017-12-05T11:39:38.598Z,97.70
2017-12-05T11:42:06.758Z,97.70
2017-12-05T11:44:34.883Z,97.60
2017-12-05T11:47:03.030Z,97.40
2017-12-05T11:49:31.165Z,97.20
2017-12-05T11:51:59.310Z,97.10
2017-12-05T11:54:27.435Z,97.10
2017-12-05T11:56:56.358Z,97.60
2017-12-05T11:59:24.474Z,97.20
2017-12-05T12:01:52.622Z,96.80
2017-12-05T12:04:20.741Z,96.50
2017-12-05T12:06:48.895Z,96.50
2017-12-05T12:09:17.012Z,96.10
2017-12-05T12:11:45.157Z,96.10
2017-12-05T12:14:13.269Z,95.90
2017-12-05T12:16:41.413Z,95.80
2017-12-05T12:19:09.535Z,95.40
2017-12-05T12:21:37.669Z,95.00
2017-12-05T12:24:05.785Z,94.80
2017-12-05T12:26:33.929Z,94.90
2017-12-05T12:29:02.053Z,94.80
2017-12-05T12:31:30.193Z,94.80
2017-12-05T12:33:58.315Z,94.70
2017-12-05T12:36:26.457Z,94.70
2017-12-05T12:38:54.569Z,94.70
2017-12-05T12:41:23.479Z,94.60
2017-12-05T12:43:51.601Z,94.60
2017-12-05T12:46:19.741Z,94.60
2017-12-05T12:48:47.861Z,94.60
2017-12-05T12:51:16.002Z,94.40
2017-12-05T12:53:44.211Z,94.40
2017-12-05T12:56:12.356Z,94.40
2017-12-05T12:58:40.557Z,94.30
2017-12-05T13:01:08.670Z,94.20
2017-12-05T13:03:36.798Z,94.20
2017-12-05T13:06:04.942Z,94.30
2017-12-05T13:08:33.068Z,94.30
2017-12-05T13:11:01.303Z,94.50
2017-12-05T13:13:29.418Z,94.40
2017-12-05T13:15:58.355Z,94.50
2017-12-05T13:18:26.492Z,94.40
2017-12-05T13:20:56.294Z,94.50
2017-12-05T13:23:25.242Z,94.60
2017-12-05T13:25:53.369Z,94.60
2017-12-05T13:28:21.521Z,94.60
2017-12-05T13:30:49.648Z,94.60
2017-12-05T13:33:17.788Z,94.70
2017-12-05T13:35:45.917Z,94.90
2017-12-05T13:38:14.076Z,94.60
2017-12-05T13:40:42.198Z,94.70
2017-12-05T13:43:11.115Z,94.70
2017-12-05T13:45:39.229Z,94.60
2017-12-05T13:48:07.382Z,94.60
2017-12-05T13:50:35.509Z,94.70
2017-12-05T13:53:03.694Z,94.60
2017-12-05T13:55:31.834Z,94.70
2017-12-05T13:57:59.981Z,94.80
2017-12-05T14:00:28.107Z,94.90
2017-12-05T14:02:56.271Z,95.10
2017-12-05T14:05:24.390Z,95.20
2017-12-05T14:07:52.558Z,95.40
2017-12-05T14:10:20.703Z,95.50
2017-12-05T14:12:48.936Z,95.70
2017-12-05T14:15:17.167Z,95.80
2017-12-05T14:17:45.307Z,95.70
2017-12-05T14:20:13.474Z,95.80
2017-12-05T14:22:41.609Z,95.80
2017-12-05T14:25:09.827Z,95.80
2017-12-05T14:27:37.946Z,96.20
2017-12-05T14:30:06.098Z,95.90
2017-12-05T14:32:34.987Z,95.90
2017-12-05T14:35:03.147Z,95.90
2017-12-05T14:37:31.292Z,95.90
2017-12-05T14:39:59.478Z,96.00
2017-12-05T14:42:27.600Z,96.00
2017-12-05T14:44:55.750Z,96.10
2017-12-05T14:47:24.636Z,96.40
2017-12-05T14:49:52.785Z,96.30
2017-12-05T14:52:20.912Z,96.50
2017-12-05T14:54:49.214Z,96.60
2017-12-05T14:57:17.409Z,96.70
2017-12-05T14:59:45.580Z,96.70
2017-12-05T15:02:13.763Z,96.80
2017-12-05T15:04:41.919Z,96.80
2017-12-05T15:07:10.935Z,96.80
2017-12-05T15:09:39.084Z,96.80
2017-12-05T15:12:07.265Z,96.90
2017-12-05T15:14:35.453Z,96.90
2017-12-05T15:17:03.662Z,96.90
2017-12-05T15:19:31.904Z,96.90
2017-12-05T15:22:00.254Z,96.90
2017-12-05T15:24:28.568Z,96.90
2017-12-05T15:26:57.503Z,96.90
2017-12-05T15:29:25.672Z,96.90
2017-12-05T15:31:53.801Z,96.90
2017-12-05T15:34:22.006Z,96.70
2017-12-05T15:36:50.198Z,96.70
2017-12-05T15:39:18.486Z,96.70
2017-12-05T15:41:46.685Z,96.70
2017-12-05T15:44:14.950Z,96.60
2017-12-05T15:46:43.088Z,96.60
2017-12-05T15:49:11.312Z,96.50
2017-12-05T15:51:39.466Z,96.40
2017-12-05T15:54:07.594Z,96.40
2017-12-05T15:56:36.506Z,96.30
2017-12-05T15:59:04.644Z,96.20
2017-12-05T16:01:32.840Z,96.20
2017-12-05T16:04:00.978Z,96.10
2017-12-05T16:06:29.118Z,96.00
2017-12-05T16:08:57.258Z,96.00
2017-12-05T16:11:25.442Z,95.90
2017-12-05T16:13:53.601Z,95.80
2017-12-05T16:16:21.781Z,95.80
2017-12-05T16:18:49.900Z,95.70
2017-12-05T16:21:18.125Z,95.70
2017-12-05T16:23:46.272Z,95.70
2017-12-05T16:26:14.438Z,95.60
2017-12-05T16:28:42.569Z,95.60
2017-12-05T16:31:10.716Z,95.50
2017-12-05T16:33:39.615Z,95.50
2017-12-05T16:36:07.775Z,95.60
2017-12-05T16:38:35.937Z,95.50
2017-12-05T16:41:04.918Z,95.50
2017-12-05T16:43:33.157Z,95.50
2017-12-05T16:46:01.334Z,95.50
2017-12-05T16:48:29.497Z,95.50
2017-12-05T16:50:57.653Z,95.40
2017-12-05T16:53:25.812Z,95.30
2017-12-05T16:55:53.940Z,95.30
2017-12-05T16:58:22.112Z,95.30
2017-12-05T17:00:50.245Z,95.10
2017-12-05T17:03:18.413Z,95.00
2017-12-05T17:05:46.546Z,94.90
2017-12-05T17:08:14.694Z,94.90
2017-12-05T17:10:42.818Z,94.80
2017-12-05T17:13:10.985Z,94.70
2017-12-05T17:15:39.146Z,94.70
2017-12-05T17:18:07.307Z,94.60
2017-12-05T17:20:35.433Z,94.60
2017-12-05T17:23:03.674Z,94.60
2017-12-05T17:25:32.916Z,94.50
2017-12-05T17:28:01.117Z,94.60
2017-12-05T17:30:29.372Z,94.70
2017-12-05T17:32:57.550Z,94.60
2017-12-05T17:35:25.684Z,94.70
2017-12-05T17:37:53.844Z,94.60
2017-12-05T17:40:22.010Z,94.50
2017-12-05T17:42:50.758Z,94.60
2017-12-05T17:45:18.994Z,94.50
2017-12-05T17:47:47.225Z,94.60
2017-12-05T17:50:15.381Z,94.50
2017-12-05T17:52:43.667Z,94.40
2017-12-05T17:55:11.998Z,94.70
2017-12-05T17:57:40.959Z,94.40
2017-12-05T18:00:09.597Z,94.40
2017-12-05T18:02:38.042Z,94.30
2017-12-05T18:05:06.655Z,94.30
2017-12-05T18:07:34.992Z,94.20
2017-12-05T18:10:03.367Z,94.30
2017-12-05T18:12:31.737Z,94.10
2017-12-05T18:15:00.205Z,94.20
2017-12-05T18:17:28.985Z,94.10
2017-12-05T18:20:02.144Z,94.10
2017-12-05T18:22:35.253Z,94.10
2017-12-05T18:25:03.990Z,94.10
2017-12-05T18:27:33.250Z,94.20
2017-12-05T18:30:01.556Z,94.20
2017-12-05T18:32:29.679Z,94.30
2017-12-05T18:34:57.855Z,94.40
2017-12-05T18:37:26.051Z,94.40
2017-12-05T18:39:54.268Z,94.50
2017-12-05T18:42:22.446Z,94.40
2017-12-05T18:44:51.103Z,94.30
2017-12-05T18:47:19.682Z,94.30
2017-12-05T18:49:48.897Z,94.20
2017-12-05T18:52:17.250Z,94.30
2017-12-05T18:54:45.712Z,94.50
2017-12-05T18:57:14.749Z,94.40
2017-12-05T18:59:43.005Z,94.50
2017-12-05T19:02:11.660Z,94.60
2017-12-05T19:04:40.720Z,94.60
2017-12-05T19:07:14.480Z,94.60
2017-12-05T19:09:47.896Z,94.60
2017-12-05T19:12:17.715Z,94.60
2017-12-05T19:14:46.290Z,94.60
2017-12-05T19:17:14.744Z,94.60
2017-12-05T19:19:43.849Z,94.50
2017-12-05T19:22:12.807Z,94.90
2017-12-05T19:24:41.888Z,94.90
2017-12-05T19:27:11.157Z,94.40
2017-12-05T19:29:39.545Z,94.40
2017-12-05T19:32:08.556Z,94.30
2017-12-05T19:34:37.294Z,94.40
2017-12-05T19:37:06.015Z,94.30
2017-12-05T19:39:34.274Z,94.40
2017-12-05T19:42:02.957Z,94.40
2017-12-05T19:44:31.225Z,94.40
2017-12-05T19:47:00.115Z,94.50
2017-12-05T19:49:29.858Z,94.60
2017-12-05T19:51:58.031Z,94.70
2017-12-05T19:54:26.229Z,94.90
2017-12-05T19:56:54.682Z,95.10
2017-12-05T19:59:22.851Z,95.30
2017-12-05T20:01:51.010Z,95.40
2017-12-05T20:04:19.194Z,95.60
2017-12-05T20:06:47.463Z,95.60
2017-12-05T20:09:15.672Z,95.70
2017-12-05T20:11:43.813Z,95.90
2017-12-05T20:14:11.949Z,96.00
2017-12-05T20:16:40.211Z,96.50
2017-12-05T20:19:08.494Z,96.20
2017-12-05T20:21:36.697Z,96.30
2017-12-05T20:24:04.829Z,96.20
2017-12-05T20:26:34.073Z,96.40
2017-12-05T20:29:02.514Z,96.30
2017-12-05T20:31:31.521Z,96.40
2017-12-05T20:33:59.952Z,96.40
2017-12-05T20:36:28.227Z,96.40
2017-12-05T20:38:56.341Z,96.50
2017-12-05T20:41:25.253Z,96.70
2017-12-05T20:43:53.487Z,96.70
2017-12-05T20:46:22.065Z,96.80
2017-12-05T20:48:51.434Z,97.00
2017-12-05T20:51:20.272Z,97.00
2017-12-05T20:53:49.531Z,97.00
2017-12-05T20:56:18.139Z,97.00
2017-12-05T20:58:46.840Z,97.00
2017-12-05T21:01:15.645Z,97.00
2017-12-05T21:03:43.979Z,97.10
2017-12-05T21:06:12.285Z,97.10
2017-12-05T21:08:40.650Z,97.20
2017-12-05T21:11:09.785Z,97.30
2017-12-05T21:13:38.760Z,97.30
2017-12-05T21:16:07.245Z,97.40
2017-12-05T21:18:36.318Z,97.70
2017-12-05T21:21:04.500Z,97.60
2017-12-05T21:23:32.753Z,97.60
2017-12-05T21:26:00.933Z,97.70
2017-12-05T21:28:29.136Z,97.60
2017-12-05T21:30:58.063Z,97.50
2017-12-05T21:33:26.218Z,97.50
2017-12-05T21:35:54.366Z,97.40
2017-12-05T21:38:22.568Z,97.30
2017-12-05T21:40:50.689Z,97.20
2017-12-05T21:43:18.839Z,97.10
2017-12-05T21:45:47.001Z,97.10
2017-12-05T21:48:15.211Z,97.00
2017-12-05T21:50:43.387Z,97.00
2017-12-05T21:53:11.571Z,97.00
2017-12-05T21:55:39.726Z,97.00
2017-12-05T21:58:07.900Z,97.00
2017-12-05T22:00:36.092Z,97.10
2017-12-05T22:03:04.339Z,97.10
2017-12-05T22:05:32.494Z,97.20
2017-12-05T22:08:00.682Z,97.20
2017-12-05T22:10:28.842Z,97.30
2017-12-05T22:12:56.970Z,97.30
2017-12-05T22:15:25.113Z,97.40
2017-12-05T22:17:53.285Z,97.50
2017-12-05T22:20:21.468Z,97.50
2017-12-05T22:22:49.594Z,97.60
2017-12-05T22:25:17.737Z,97.60
2017-12-05T22:27:46.676Z,97.70
2017-12-05T22:30:14.834Z,97.60
2017-12-05T22:32:42.984Z,97.60
2017-12-05T22:35:11.890Z,97.50
2017-12-05T22:37:40.015Z,97.50
2017-12-05T22:40:08.195Z,97.30
2017-12-05T22:42:36.356Z,97.30
2017-12-05T22:45:04.506Z,97.20
2017-12-05T22:47:32.637Z,97.20
2017-12-05T22:50:01.674Z,97.10
2017-12-05T22:52:29.815Z,97.00
2017-12-05T22:54:57.976Z,97.00
2017-12-05T22:57:26.104Z,97.00
2017-12-05T22:59:54.262Z,97.00
2017-12-05T23:02:22.467Z,97.10
2017-12-05T23:04:50.628Z,97.10
2017-12-05T23:07:19.550Z,97.10
2017-12-05T23:09:47.763Z,97.00
2017-12-05T23:12:15.928Z,97.00
2017-12-05T23:14:44.073Z,96.90
2017-12-05T23:17:12.193Z,96.70
2017-12-05T23:19:40.358Z,96.70
2017-12-05T23:22:08.485Z,96.60
2017-12-05T23:24:36.625Z,96.60
2017-12-05T23:27:04.748Z,96.60
2017-12-05T23:29:32.912Z,96.50
2017-12-05T23:32:01.038Z,96.50
2017-12-05T23:34:29.158Z,96.50
2017-12-05T23:36:58.102Z,96.20
2017-12-05T23:39:26.225Z,96.20
2017-12-05T23:41:54.386Z,96.20
2017-12-05T23:44:22.496Z,96.20
2017-12-05T23:46:50.644Z,96.20
2017-12-05T23:49:18.756Z,96.10
2017-12-05T23:51:46.908Z,96.20
2017-12-05T23:54:15.029Z,96.20
2017-12-05T23:56:43.176Z,96.20
2017-12-05T23:59:11.298Z,96.20
